Hallam, Nebraska
Current Conditions -  °F | °C
As of 12:35 AM on Wednesday 26 Nov 2014 (Local Time) from KBIE Reporting Station
Drizzle Drizzle  
Wind Chill:   Ceiling: 3200
Heat Index:   Visibility: 10mi
Dew Point:   Wind: 9mph
Humidity: 80%   Direction: 270°W
Pressure: 29.88"   Gusts: NA
Location:  40.54°N, 96.79°W
Report Text: KBIE 260635Z AUTO 27008KT 10SM -DZ SCT026 BKN032 OVC040 05/01 A2988 RMK AO2 T00460014
Loading
Personal Weather Stations






























Interactive Weather Map New forecast layout! Learn more

10-Day Weather Forecast

Advertisements
Track Severe Weather on mobile